sensor_id;sensor_type;location;lat;lon;timestamp;P1;durP1;ratioP1;P2;durP2;ratioP2
11305;SDS011;5708;50.660;6.778;2024-01-10T00:01:06;18.63;;;7.60;;
11305;SDS011;5708;50.660;6.778;2024-01-10T00:03:32;16.88;;;7.40;;
11305;SDS011;5708;50.660;6.778;2024-01-10T00:05:57;17.45;;;7.35;;
11305;SDS011;5708;50.660;6.778;2024-01-10T00:08:23;19.85;;;7.40;;
11305;SDS011;5708;50.660;6.778;2024-01-10T00:10:48;19.35;;;7.68;;
11305;SDS011;5708;50.660;6.778;2024-01-10T00:13:14;19.00;;;7.60;;
11305;SDS011;5708;50.660;6.778;2024-01-10T00:15:39;19.58;;;8.38;;
11305;SDS011;5708;50.660;6.778;2024-01-10T00:18:04;18.73;;;8.10;;
11305;SDS011;5708;50.660;6.778;2024-01-10T00:20:30;16.85;;;7.65;;
11305;SDS011;5708;50.660;6.778;2024-01-10T00:22:56;19.42;;;7.50;;
11305;SDS011;5708;50.660;6.778;2024-01-10T00:25:22;20.52;;;8.10;;
11305;SDS011;5708;50.660;6.778;2024-01-10T00:27:47;18.00;;;7.45;;
11305;SDS011;5708;50.660;6.778;2024-01-10T00:30:13;17.17;;;7.40;;
11305;SDS011;5708;50.660;6.778;2024-01-10T00:32:38;17.40;;;7.45;;
11305;SDS011;5708;50.660;6.778;2024-01-10T00:35:03;21.05;;;7.25;;
11305;SDS011;5708;50.660;6.778;2024-01-10T00:37:29;17.75;;;7.47;;
11305;SDS011;5708;50.660;6.778;2024-01-10T00:39:54;18.63;;;7.65;;
11305;SDS011;5708;50.660;6.778;2024-01-10T00:42:20;21.02;;;8.07;;
11305;SDS011;5708;50.660;6.778;2024-01-10T00:44:46;17.52;;;7.53;;
11305;SDS011;5708;50.660;6.778;2024-01-10T00:47:11;16.67;;;7.47;;
11305;SDS011;5708;50.660;6.778;2024-01-10T00:49:36;18.20;;;7.55;;
11305;SDS011;5708;50.660;6.778;2024-01-10T00:52:02;20.45;;;7.13;;
11305;SDS011;5708;50.660;6.778;2024-01-10T00:54:27;19.77;;;8.18;;
11305;SDS011;5708;50.660;6.778;2024-01-10T00:56:52;18.33;;;7.75;;
11305;SDS011;5708;50.660;6.778;2024-01-10T00:59:18;15.70;;;7.25;;
11305;SDS011;5708;50.660;6.778;2024-01-10T01:01:43;21.20;;;7.43;;
11305;SDS011;5708;50.660;6.778;2024-01-10T01:04:09;19.80;;;8.10;;
11305;SDS011;5708;50.660;6.778;2024-01-10T01:06:34;16.75;;;7.10;;
11305;SDS011;5708;50.660;6.778;2024-01-10T01:08:59;16.13;;;6.85;;
11305;SDS011;5708;50.660;6.778;2024-01-10T01:11:25;16.90;;;7.32;;
11305;SDS011;5708;50.660;6.778;2024-01-10T01:13:50;15.25;;;6.90;;
11305;SDS011;5708;50.660;6.778;2024-01-10T01:16:15;19.00;;;6.90;;
11305;SDS011;5708;50.660;6.778;2024-01-10T01:18:41;18.40;;;7.18;;
11305;SDS011;5708;50.660;6.778;2024-01-10T01:21:10;16.55;;;6.65;;
11305;SDS011;5708;50.660;6.778;2024-01-10T01:23:36;18.05;;;6.95;;
11305;SDS011;5708;50.660;6.778;2024-01-10T01:26:01;13.38;;;6.03;;
11305;SDS011;5708;50.660;6.778;2024-01-10T01:28:26;17.75;;;7.10;;
11305;SDS011;5708;50.660;6.778;2024-01-10T01:30:52;15.05;;;6.50;;
11305;SDS011;5708;50.660;6.778;2024-01-10T01:33:17;15.32;;;6.88;;
11305;SDS011;5708;50.660;6.778;2024-01-10T01:35:43;18.33;;;6.75;;
11305;SDS011;5708;50.660;6.778;2024-01-10T01:38:08;22.17;;;8.05;;
11305;SDS011;5708;50.660;6.778;2024-01-10T01:40:33;15.63;;;7.43;;
11305;SDS011;5708;50.660;6.778;2024-01-10T01:42:59;17.45;;;7.35;;
11305;SDS011;5708;50.660;6.778;2024-01-10T01:45:24;16.58;;;7.10;;
11305;SDS011;5708;50.660;6.778;2024-01-10T01:47:49;17.02;;;6.93;;
11305;SDS011;5708;50.660;6.778;2024-01-10T01:50:15;18.40;;;6.63;;
11305;SDS011;5708;50.660;6.778;2024-01-10T01:52:41;15.07;;;6.78;;
11305;SDS011;5708;50.660;6.778;2024-01-10T01:55:08;15.18;;;6.40;;
11305;SDS011;5708;50.660;6.778;2024-01-10T01:57:34;20.35;;;7.18;;
11305;SDS011;5708;50.660;6.778;2024-01-10T02:00:00;19.20;;;7.63;;
11305;SDS011;5708;50.660;6.778;2024-01-10T02:02:26;20.00;;;7.80;;
11305;SDS011;5708;50.660;6.778;2024-01-10T02:04:52;20.73;;;7.55;;
11305;SDS011;5708;50.660;6.778;2024-01-10T02:07:17;16.08;;;7.57;;
11305;SDS011;5708;50.660;6.778;2024-01-10T02:09:43;16.35;;;7.13;;
11305;SDS011;5708;50.660;6.778;2024-01-10T02:12:08;18.25;;;8.00;;
11305;SDS011;5708;50.660;6.778;2024-01-10T02:14:34;14.88;;;6.45;;
11305;SDS011;5708;50.660;6.778;2024-01-10T02:16:59;16.77;;;7.00;;
11305;SDS011;5708;50.660;6.778;2024-01-10T02:19:24;17.25;;;7.32;;
11305;SDS011;5708;50.660;6.778;2024-01-10T02:21:51;16.95;;;7.20;;
11305;SDS011;5708;50.660;6.778;2024-01-10T02:24:17;22.92;;;6.45;;
11305;SDS011;5708;50.660;6.778;2024-01-10T02:26:42;15.60;;;6.88;;
11305;SDS011;5708;50.660;6.778;2024-01-10T02:29:08;19.33;;;6.95;;
11305;SDS011;5708;50.660;6.778;2024-01-10T02:31:33;17.80;;;6.88;;
11305;SDS011;5708;50.660;6.778;2024-01-10T02:33:59;15.43;;;6.47;;
11305;SDS011;5708;50.660;6.778;2024-01-10T02:36:24;16.55;;;7.20;;
11305;SDS011;5708;50.660;6.778;2024-01-10T02:38:50;20.15;;;7.70;;
11305;SDS011;5708;50.660;6.778;2024-01-10T02:41:16;15.10;;;6.78;;
11305;SDS011;5708;50.660;6.778;2024-01-10T02:43:41;16.13;;;7.18;;
11305;SDS011;5708;50.660;6.778;2024-01-10T02:46:06;19.70;;;7.40;;
11305;SDS011;5708;50.660;6.778;2024-01-10T02:48:32;15.63;;;6.72;;
11305;SDS011;5708;50.660;6.778;2024-01-10T02:50:57;15.20;;;6.38;;
11305;SDS011;5708;50.660;6.778;2024-01-10T02:53:22;16.45;;;6.35;;
11305;SDS011;5708;50.660;6.778;2024-01-10T02:55:48;16.27;;;7.15;;
11305;SDS011;5708;50.660;6.778;2024-01-10T02:58:14;18.77;;;6.88;;
11305;SDS011;5708;50.660;6.778;2024-01-10T03:00:40;15.55;;;7.22;;
11305;SDS011;5708;50.660;6.778;2024-01-10T03:03:05;15.02;;;6.55;;
11305;SDS011;5708;50.660;6.778;2024-01-10T03:05:31;17.27;;;6.65;;
11305;SDS011;5708;50.660;6.778;2024-01-10T03:07:56;19.65;;;7.03;;
11305;SDS011;5708;50.660;6.778;2024-01-10T03:10:21;17.50;;;6.95;;
11305;SDS011;5708;50.660;6.778;2024-01-10T03:12:47;15.30;;;7.43;;
11305;SDS011;5708;50.660;6.778;2024-01-10T03:15:12;19.60;;;7.00;;
11305;SDS011;5708;50.660;6.778;2024-01-10T03:17:38;15.15;;;5.82;;
11305;SDS011;5708;50.660;6.778;2024-01-10T03:20:03;17.17;;;7.55;;
11305;SDS011;5708;50.660;6.778;2024-01-10T03:22:30;15.50;;;6.55;;
11305;SDS011;5708;50.660;6.778;2024-01-10T03:24:57;16.65;;;6.95;;
11305;SDS011;5708;50.660;6.778;2024-01-10T03:27:22;16.83;;;6.90;;
11305;SDS011;5708;50.660;6.778;2024-01-10T03:29:48;14.57;;;6.75;;
11305;SDS011;5708;50.660;6.778;2024-01-10T03:32:13;16.67;;;6.68;;
11305;SDS011;5708;50.660;6.778;2024-01-10T03:34:38;15.55;;;6.32;;
11305;SDS011;5708;50.660;6.778;2024-01-10T03:37:06;14.38;;;5.63;;
11305;SDS011;5708;50.660;6.778;2024-01-10T03:39:31;16.42;;;6.63;;
11305;SDS011;5708;50.660;6.778;2024-01-10T03:41:57;18.60;;;6.40;;
11305;SDS011;5708;50.660;6.778;2024-01-10T03:44:22;17.45;;;6.80;;
11305;SDS011;5708;50.660;6.778;2024-01-10T03:46:48;18.30;;;6.55;;
11305;SDS011;5708;50.660;6.778;2024-01-10T03:49:13;16.40;;;6.78;;
11305;SDS011;5708;50.660;6.778;2024-01-10T03:51:38;17.83;;;6.43;;
11305;SDS011;5708;50.660;6.778;2024-01-10T03:54:05;18.63;;;6.97;;
11305;SDS011;5708;50.660;6.778;2024-01-10T03:56:31;18.23;;;6.30;;
11305;SDS011;5708;50.660;6.778;2024-01-10T03:58:56;16.17;;;6.45;;
11305;SDS011;5708;50.660;6.778;2024-01-10T04:01:22;14.85;;;6.10;;
11305;SDS011;5708;50.660;6.778;2024-01-10T04:03:48;15.95;;;6.03;;
11305;SDS011;5708;50.660;6.778;2024-01-10T04:06:14;16.17;;;6.55;;
11305;SDS011;5708;50.660;6.778;2024-01-10T04:08:39;15.52;;;6.47;;
11305;SDS011;5708;50.660;6.778;2024-01-10T04:11:04;16.08;;;6.97;;
11305;SDS011;5708;50.660;6.778;2024-01-10T04:13:30;20.92;;;6.90;;
11305;SDS011;5708;50.660;6.778;2024-01-10T04:15:55;17.92;;;7.18;;
11305;SDS011;5708;50.660;6.778;2024-01-10T04:18:20;16.77;;;6.40;;
11305;SDS011;5708;50.660;6.778;2024-01-10T04:20:46;18.10;;;6.82;;
11305;SDS011;5708;50.660;6.778;2024-01-10T04:23:12;18.63;;;7.38;;
11305;SDS011;5708;50.660;6.778;2024-01-10T04:25:38;16.55;;;7.20;;
11305;SDS011;5708;50.660;6.778;2024-01-10T04:28:04;18.55;;;7.00;;
11305;SDS011;5708;50.660;6.778;2024-01-10T04:30:29;18.02;;;6.70;;
11305;SDS011;5708;50.660;6.778;2024-01-10T04:32:55;25.65;;;6.95;;
11305;SDS011;5708;50.660;6.778;2024-01-10T04:35:20;17.92;;;7.00;;
11305;SDS011;5708;50.660;6.778;2024-01-10T04:37:45;19.80;;;7.35;;
11305;SDS011;5708;50.660;6.778;2024-01-10T04:40:11;18.45;;;7.63;;
11305;SDS011;5708;50.660;6.778;2024-01-10T04:42:37;16.73;;;6.88;;
11305;SDS011;5708;50.660;6.778;2024-01-10T04:45:02;17.90;;;6.80;;
11305;SDS011;5708;50.660;6.778;2024-01-10T04:47:28;20.63;;;7.38;;
11305;SDS011;5708;50.660;6.778;2024-01-10T04:49:53;17.13;;;6.78;;
11305;SDS011;5708;50.660;6.778;2024-01-10T04:52:18;19.52;;;6.93;;
11305;SDS011;5708;50.660;6.778;2024-01-10T04:54:44;17.88;;;6.53;;
11305;SDS011;5708;50.660;6.778;2024-01-10T04:57:09;20.55;;;7.75;;
11305;SDS011;5708;50.660;6.778;2024-01-10T04:59:34;20.17;;;7.05;;
11305;SDS011;5708;50.660;6.778;2024-01-10T05:02:00;17.65;;;7.20;;
11305;SDS011;5708;50.660;6.778;2024-01-10T05:04:25;15.18;;;6.18;;
11305;SDS011;5708;50.660;6.778;2024-01-10T05:06:51;18.83;;;7.47;;
11305;SDS011;5708;50.660;6.778;2024-01-10T05:09:16;14.68;;;6.63;;
11305;SDS011;5708;50.660;6.778;2024-01-10T05:11:42;17.92;;;7.32;;
11305;SDS011;5708;50.660;6.778;2024-01-10T05:14:07;22.98;;;8.00;;
11305;SDS011;5708;50.660;6.778;2024-01-10T05:16:32;20.58;;;7.70;;
11305;SDS011;5708;50.660;6.778;2024-01-10T05:19:00;19.95;;;8.43;;
11305;SDS011;5708;50.660;6.778;2024-01-10T05:21:28;18.98;;;7.93;;
11305;SDS011;5708;50.660;6.778;2024-01-10T05:23:55;23.23;;;8.15;;
11305;SDS011;5708;50.660;6.778;2024-01-10T05:26:20;23.10;;;8.57;;
11305;SDS011;5708;50.660;6.778;2024-01-10T05:28:46;23.92;;;7.63;;
11305;SDS011;5708;50.660;6.778;2024-01-10T05:31:11;20.38;;;7.88;;
11305;SDS011;5708;50.660;6.778;2024-01-10T05:33:36;17.58;;;6.85;;
11305;SDS011;5708;50.660;6.778;2024-01-10T05:36:02;18.05;;;7.18;;
11305;SDS011;5708;50.660;6.778;2024-01-10T05:38:28;20.17;;;7.40;;
11305;SDS011;5708;50.660;6.778;2024-01-10T05:40:56;18.92;;;7.75;;
11305;SDS011;5708;50.660;6.778;2024-01-10T05:43:22;21.67;;;7.75;;
11305;SDS011;5708;50.660;6.778;2024-01-10T05:45:47;23.60;;;7.43;;
11305;SDS011;5708;50.660;6.778;2024-01-10T05:48:12;19.63;;;8.23;;
11305;SDS011;5708;50.660;6.778;2024-01-10T05:50:38;20.60;;;7.97;;
11305;SDS011;5708;50.660;6.778;2024-01-10T05:53:04;18.92;;;7.10;;
11305;SDS011;5708;50.660;6.778;2024-01-10T05:55:29;20.33;;;7.68;;
11305;SDS011;5708;50.660;6.778;2024-01-10T05:57:55;24.35;;;7.97;;
11305;SDS011;5708;50.660;6.778;2024-01-10T06:00:20;21.83;;;7.97;;
11305;SDS011;5708;50.660;6.778;2024-01-10T06:02:46;18.35;;;7.38;;
11305;SDS011;5708;50.660;6.778;2024-01-10T06:05:11;19.63;;;7.55;;
11305;SDS011;5708;50.660;6.778;2024-01-10T06:07:37;18.35;;;7.93;;
11305;SDS011;5708;50.660;6.778;2024-01-10T06:10:03;18.00;;;7.40;;
11305;SDS011;5708;50.660;6.778;2024-01-10T06:12:29;19.48;;;7.00;;
11305;SDS011;5708;50.660;6.778;2024-01-10T06:14:54;20.70;;;7.38;;
11305;SDS011;5708;50.660;6.778;2024-01-10T06:17:20;20.33;;;8.00;;
11305;SDS011;5708;50.660;6.778;2024-01-10T06:19:45;15.20;;;6.65;;
11305;SDS011;5708;50.660;6.778;2024-01-10T06:22:11;18.33;;;7.45;;
11305;SDS011;5708;50.660;6.778;2024-01-10T06:24:36;17.92;;;8.32;;
11305;SDS011;5708;50.660;6.778;2024-01-10T06:27:03;19.65;;;7.93;;
11305;SDS011;5708;50.660;6.778;2024-01-10T06:29:29;20.00;;;7.95;;
11305;SDS011;5708;50.660;6.778;2024-01-10T06:31:55;19.08;;;7.38;;
11305;SDS011;5708;50.660;6.778;2024-01-10T06:34:21;15.68;;;6.75;;
11305;SDS011;5708;50.660;6.778;2024-01-10T06:36:47;23.15;;;9.00;;
11305;SDS011;5708;50.660;6.778;2024-01-10T06:39:12;20.30;;;7.78;;
11305;SDS011;5708;50.660;6.778;2024-01-10T06:41:39;22.05;;;8.30;;
11305;SDS011;5708;50.660;6.778;2024-01-10T06:44:04;19.08;;;7.80;;
11305;SDS011;5708;50.660;6.778;2024-01-10T06:46:31;18.65;;;7.70;;
11305;SDS011;5708;50.660;6.778;2024-01-10T06:48:57;22.10;;;8.00;;
11305;SDS011;5708;50.660;6.778;2024-01-10T06:51:22;17.05;;;6.97;;
11305;SDS011;5708;50.660;6.778;2024-01-10T06:53:48;19.73;;;8.55;;
11305;SDS011;5708;50.660;6.778;2024-01-10T06:56:14;20.05;;;8.18;;
11305;SDS011;5708;50.660;6.778;2024-01-10T06:58:39;20.58;;;8.07;;
11305;SDS011;5708;50.660;6.778;2024-01-10T07:01:05;20.45;;;8.05;;
11305;SDS011;5708;50.660;6.778;2024-01-10T07:03:31;20.58;;;7.65;;
11305;SDS011;5708;50.660;6.778;2024-01-10T07:05:57;19.25;;;8.23;;
11305;SDS011;5708;50.660;6.778;2024-01-10T07:08:23;21.13;;;8.25;;
11305;SDS011;5708;50.660;6.778;2024-01-10T07:10:50;22.08;;;8.00;;
11305;SDS011;5708;50.660;6.778;2024-01-10T07:13:16;24.17;;;9.70;;
11305;SDS011;5708;50.660;6.778;2024-01-10T07:15:42;28.25;;;10.57;;
11305;SDS011;5708;50.660;6.778;2024-01-10T07:18:07;27.27;;;10.02;;
11305;SDS011;5708;50.660;6.778;2024-01-10T07:20:34;26.00;;;10.32;;
11305;SDS011;5708;50.660;6.778;2024-01-10T07:22:59;23.33;;;10.10;;
11305;SDS011;5708;50.660;6.778;2024-01-10T07:25:25;21.63;;;8.88;;
11305;SDS011;5708;50.660;6.778;2024-01-10T07:27:53;25.35;;;9.85;;
11305;SDS011;5708;50.660;6.778;2024-01-10T07:30:18;28.80;;;11.02;;
11305;SDS011;5708;50.660;6.778;2024-01-10T07:32:44;24.13;;;9.43;;
11305;SDS011;5708;50.660;6.778;2024-01-10T07:35:11;28.35;;;9.80;;
11305;SDS011;5708;50.660;6.778;2024-01-10T07:37:37;22.10;;;9.52;;
11305;SDS011;5708;50.660;6.778;2024-01-10T07:40:03;23.23;;;8.93;;
11305;SDS011;5708;50.660;6.778;2024-01-10T07:42:35;23.92;;;9.60;;
11305;SDS011;5708;50.660;6.778;2024-01-10T07:45:01;25.42;;;10.27;;
11305;SDS011;5708;50.660;6.778;2024-01-10T07:47:32;25.17;;;9.98;;
11305;SDS011;5708;50.660;6.778;2024-01-10T07:52:30;24.27;;;10.50;;
11305;SDS011;5708;50.660;6.778;2024-01-10T07:54:56;29.48;;;10.98;;
11305;SDS011;5708;50.660;6.778;2024-01-10T07:57:22;26.70;;;10.00;;
11305;SDS011;5708;50.660;6.778;2024-01-10T07:59:48;24.35;;;10.77;;
11305;SDS011;5708;50.660;6.778;2024-01-10T08:02:13;25.48;;;10.30;;
11305;SDS011;5708;50.660;6.778;2024-01-10T08:04:39;26.58;;;11.38;;
11305;SDS011;5708;50.660;6.778;2024-01-10T08:07:04;30.48;;;11.25;;
11305;SDS011;5708;50.660;6.778;2024-01-10T08:09:30;28.95;;;11.40;;
11305;SDS011;5708;50.660;6.778;2024-01-10T08:11:55;27.38;;;11.23;;
11305;SDS011;5708;50.660;6.778;2024-01-10T08:14:20;27.42;;;12.20;;
11305;SDS011;5708;50.660;6.778;2024-01-10T08:16:46;25.02;;;11.32;;
11305;SDS011;5708;50.660;6.778;2024-01-10T08:19:11;29.17;;;12.07;;
11305;SDS011;5708;50.660;6.778;2024-01-10T08:21:37;28.42;;;11.05;;
11305;SDS011;5708;50.660;6.778;2024-01-10T08:24:02;28.75;;;11.77;;
11305;SDS011;5708;50.660;6.778;2024-01-10T08:26:28;27.00;;;12.45;;
11305;SDS011;5708;50.660;6.778;2024-01-10T08:28:54;28.95;;;11.95;;
11305;SDS011;5708;50.660;6.778;2024-01-10T08:31:20;27.98;;;12.25;;
11305;SDS011;5708;50.660;6.778;2024-01-10T08:33:45;34.85;;;12.95;;
11305;SDS011;5708;50.660;6.778;2024-01-10T08:36:11;30.35;;;13.05;;
11305;SDS011;5708;50.660;6.778;2024-01-10T08:38:37;29.25;;;11.98;;
11305;SDS011;5708;50.660;6.778;2024-01-10T08:41:03;23.17;;;10.57;;
11305;SDS011;5708;50.660;6.778;2024-01-10T08:43:29;26.80;;;11.15;;
11305;SDS011;5708;50.660;6.778;2024-01-10T08:45:55;29.50;;;11.20;;
11305;SDS011;5708;50.660;6.778;2024-01-10T08:48:22;32.33;;;12.65;;
11305;SDS011;5708;50.660;6.778;2024-01-10T08:50:48;31.30;;;13.15;;
11305;SDS011;5708;50.660;6.778;2024-01-10T08:53:13;29.20;;;13.10;;
11305;SDS011;5708;50.660;6.778;2024-01-10T08:55:39;33.28;;;13.07;;
11305;SDS011;5708;50.660;6.778;2024-01-10T08:58:04;31.50;;;13.95;;
11305;SDS011;5708;50.660;6.778;2024-01-10T09:00:30;35.30;;;14.65;;
11305;SDS011;5708;50.660;6.778;2024-01-10T09:02:55;39.65;;;15.73;;
11305;SDS011;5708;50.660;6.778;2024-01-10T09:05:21;36.85;;;15.75;;
11305;SDS011;5708;50.660;6.778;2024-01-10T09:07:47;34.38;;;15.75;;
11305;SDS011;5708;50.660;6.778;2024-01-10T09:10:12;35.28;;;15.15;;
11305;SDS011;5708;50.660;6.778;2024-01-10T09:12:38;37.03;;;15.95;;
11305;SDS011;5708;50.660;6.778;2024-01-10T09:15:03;35.10;;;15.88;;
11305;SDS011;5708;50.660;6.778;2024-01-10T09:17:29;43.47;;;17.40;;
11305;SDS011;5708;50.660;6.778;2024-01-10T09:19:54;37.72;;;15.45;;
11305;SDS011;5708;50.660;6.778;2024-01-10T09:22:20;36.45;;;15.75;;
11305;SDS011;5708;50.660;6.778;2024-01-10T09:24:45;41.35;;;16.10;;
11305;SDS011;5708;50.660;6.778;2024-01-10T09:27:11;38.72;;;14.52;;
11305;SDS011;5708;50.660;6.778;2024-01-10T09:29:36;36.75;;;15.50;;
11305;SDS011;5708;50.660;6.778;2024-01-10T09:32:02;37.55;;;15.30;;
11305;SDS011;5708;50.660;6.778;2024-01-10T09:34:28;34.53;;;14.40;;
11305;SDS011;5708;50.660;6.778;2024-01-10T09:36:53;35.70;;;14.25;;
11305;SDS011;5708;50.660;6.778;2024-01-10T09:39:18;37.92;;;14.77;;
11305;SDS011;5708;50.660;6.778;2024-01-10T09:41:48;34.50;;;14.32;;
11305;SDS011;5708;50.660;6.778;2024-01-10T09:44:15;34.75;;;14.48;;
11305;SDS011;5708;50.660;6.778;2024-01-10T09:46:46;30.63;;;13.55;;
11305;SDS011;5708;50.660;6.778;2024-01-10T09:49:12;31.83;;;15.23;;
11305;SDS011;5708;50.660;6.778;2024-01-10T09:51:38;35.58;;;14.63;;
11305;SDS011;5708;50.660;6.778;2024-01-10T09:54:04;31.95;;;14.65;;
11305;SDS011;5708;50.660;6.778;2024-01-10T09:56:30;29.80;;;13.75;;
11305;SDS011;5708;50.660;6.778;2024-01-10T09:58:56;32.78;;;13.65;;
11305;SDS011;5708;50.660;6.778;2024-01-10T10:01:23;29.15;;;12.88;;
11305;SDS011;5708;50.660;6.778;2024-01-10T10:03:49;27.50;;;12.93;;
11305;SDS011;5708;50.660;6.778;2024-01-10T10:06:15;29.10;;;13.82;;
11305;SDS011;5708;50.660;6.778;2024-01-10T10:08:40;30.40;;;13.52;;
11305;SDS011;5708;50.660;6.778;2024-01-10T10:11:06;34.22;;;13.65;;
11305;SDS011;5708;50.660;6.778;2024-01-10T10:13:32;33.25;;;13.75;;
11305;SDS011;5708;50.660;6.778;2024-01-10T10:16:01;32.47;;;13.45;;
11305;SDS011;5708;50.660;6.778;2024-01-10T10:18:27;32.65;;;14.15;;
11305;SDS011;5708;50.660;6.778;2024-01-10T10:21:06;30.25;;;13.90;;
11305;SDS011;5708;50.660;6.778;2024-01-10T10:23:31;30.27;;;13.15;;
11305;SDS011;5708;50.660;6.778;2024-01-10T10:25:57;32.83;;;13.82;;
11305;SDS011;5708;50.660;6.778;2024-01-10T10:28:27;36.38;;;14.38;;
11305;SDS011;5708;50.660;6.778;2024-01-10T10:30:53;41.05;;;14.57;;
11305;SDS011;5708;50.660;6.778;2024-01-10T10:33:19;32.70;;;13.95;;
11305;SDS011;5708;50.660;6.778;2024-01-10T10:35:46;35.45;;;14.93;;
11305;SDS011;5708;50.660;6.778;2024-01-10T10:38:11;33.55;;;14.73;;
11305;SDS011;5708;50.660;6.778;2024-01-10T10:40:37;28.77;;;12.63;;
11305;SDS011;5708;50.660;6.778;2024-01-10T10:43:03;34.95;;;15.52;;
11305;SDS011;5708;50.660;6.778;2024-01-10T10:45:29;32.40;;;14.15;;
11305;SDS011;5708;50.660;6.778;2024-01-10T10:47:57;30.23;;;13.05;;
11305;SDS011;5708;50.660;6.778;2024-01-10T10:50:23;30.63;;;13.65;;
11305;SDS011;5708;50.660;6.778;2024-01-10T10:52:49;35.03;;;14.63;;
11305;SDS011;5708;50.660;6.778;2024-01-10T10:55:15;36.15;;;15.30;;
11305;SDS011;5708;50.660;6.778;2024-01-10T10:57:45;37.42;;;13.95;;
11305;SDS011;5708;50.660;6.778;2024-01-10T11:00:12;35.15;;;14.35;;
11305;SDS011;5708;50.660;6.778;2024-01-10T11:02:40;31.48;;;14.00;;
11305;SDS011;5708;50.660;6.778;2024-01-10T11:05:06;29.63;;;13.27;;
11305;SDS011;5708;50.660;6.778;2024-01-10T11:07:43;30.35;;;12.75;;
11305;SDS011;5708;50.660;6.778;2024-01-10T11:10:13;34.05;;;13.85;;
11305;SDS011;5708;50.660;6.778;2024-01-10T11:15:24;30.83;;;13.88;;
11305;SDS011;5708;50.660;6.778;2024-01-10T11:21:55;29.58;;;13.45;;
11305;SDS011;5708;50.660;6.778;2024-01-10T11:24:03;34.65;;;15.10;;
11305;SDS011;5708;50.660;6.778;2024-01-10T11:26:29;32.08;;;13.77;;
11305;SDS011;5708;50.660;6.778;2024-01-10T11:28:54;31.38;;;13.35;;
11305;SDS011;5708;50.660;6.778;2024-01-10T11:31:31;34.97;;;15.23;;
11305;SDS011;5708;50.660;6.778;2024-01-10T11:33:57;31.77;;;13.52;;
11305;SDS011;5708;50.660;6.778;2024-01-10T11:36:23;34.15;;;13.90;;
11305;SDS011;5708;50.660;6.778;2024-01-10T11:46:43;36.17;;;15.35;;
11305;SDS011;5708;50.660;6.778;2024-01-10T11:51:41;31.73;;;13.63;;
11305;SDS011;5708;50.660;6.778;2024-01-10T11:54:07;32.88;;;15.23;;
11305;SDS011;5708;50.660;6.778;2024-01-10T11:56:39;34.15;;;15.57;;
11305;SDS011;5708;50.660;6.778;2024-01-10T11:59:06;33.05;;;14.95;;
11305;SDS011;5708;50.660;6.778;2024-01-10T12:01:33;33.65;;;15.25;;
11305;SDS011;5708;50.660;6.778;2024-01-10T12:04:00;32.53;;;14.35;;
11305;SDS011;5708;50.660;6.778;2024-01-10T12:06:25;37.55;;;14.23;;
11305;SDS011;5708;50.660;6.778;2024-01-10T12:08:51;36.05;;;14.65;;
11305;SDS011;5708;50.660;6.778;2024-01-10T12:11:16;31.48;;;13.70;;
11305;SDS011;5708;50.660;6.778;2024-01-10T12:13:42;33.10;;;14.32;;
11305;SDS011;5708;50.660;6.778;2024-01-10T12:16:09;30.67;;;14.25;;
11305;SDS011;5708;50.660;6.778;2024-01-10T12:18:36;32.17;;;13.13;;
11305;SDS011;5708;50.660;6.778;2024-01-10T12:21:01;31.48;;;14.13;;
11305;SDS011;5708;50.660;6.778;2024-01-10T12:23:26;33.30;;;14.95;;
11305;SDS011;5708;50.660;6.778;2024-01-10T12:25:56;31.92;;;13.93;;
11305;SDS011;5708;50.660;6.778;2024-01-10T12:28:22;33.38;;;14.60;;
11305;SDS011;5708;50.660;6.778;2024-01-10T12:30:48;33.78;;;14.55;;
11305;SDS011;5708;50.660;6.778;2024-01-10T12:33:13;37.58;;;15.30;;
11305;SDS011;5708;50.660;6.778;2024-01-10T12:35:38;32.30;;;14.30;;
11305;SDS011;5708;50.660;6.778;2024-01-10T12:38:07;32.88;;;14.55;;
11305;SDS011;5708;50.660;6.778;2024-01-10T12:40:35;34.38;;;14.55;;
11305;SDS011;5708;50.660;6.778;2024-01-10T12:43:02;37.42;;;16.67;;
11305;SDS011;5708;50.660;6.778;2024-01-10T12:45:29;36.65;;;15.52;;
11305;SDS011;5708;50.660;6.778;2024-01-10T12:47:54;34.72;;;15.05;;
11305;SDS011;5708;50.660;6.778;2024-01-10T12:50:20;33.67;;;14.27;;
11305;SDS011;5708;50.660;6.778;2024-01-10T12:52:45;32.13;;;13.23;;
11305;SDS011;5708;50.660;6.778;2024-01-10T12:55:11;33.67;;;12.43;;
11305;SDS011;5708;50.660;6.778;2024-01-10T12:57:37;29.23;;;12.85;;
11305;SDS011;5708;50.660;6.778;2024-01-10T13:00:03;33.25;;;14.30;;
11305;SDS011;5708;50.660;6.778;2024-01-10T13:02:32;33.58;;;13.70;;
11305;SDS011;5708;50.660;6.778;2024-01-10T13:05:02;33.83;;;13.32;;
11305;SDS011;5708;50.660;6.778;2024-01-10T13:07:28;26.92;;;12.25;;
11305;SDS011;5708;50.660;6.778;2024-01-10T13:09:56;27.38;;;12.48;;
11305;SDS011;5708;50.660;6.778;2024-01-10T13:12:21;23.63;;;11.63;;
11305;SDS011;5708;50.660;6.778;2024-01-10T13:14:47;26.90;;;12.60;;
11305;SDS011;5708;50.660;6.778;2024-01-10T13:17:12;35.30;;;14.15;;
11305;SDS011;5708;50.660;6.778;2024-01-10T13:19:38;30.90;;;12.93;;
11305;SDS011;5708;50.660;6.778;2024-01-10T13:22:03;29.30;;;13.10;;
11305;SDS011;5708;50.660;6.778;2024-01-10T13:24:29;33.65;;;13.85;;
11305;SDS011;5708;50.660;6.778;2024-01-10T13:26:57;29.48;;;12.77;;
11305;SDS011;5708;50.660;6.778;2024-01-10T13:29:22;24.42;;;11.55;;
11305;SDS011;5708;50.660;6.778;2024-01-10T13:31:47;31.75;;;12.52;;
11305;SDS011;5708;50.660;6.778;2024-01-10T13:34:14;26.95;;;13.23;;
11305;SDS011;5708;50.660;6.778;2024-01-10T13:36:39;38.22;;;13.82;;
11305;SDS011;5708;50.660;6.778;2024-01-10T13:39:06;27.58;;;12.18;;
11305;SDS011;5708;50.660;6.778;2024-01-10T13:41:32;29.30;;;13.88;;
11305;SDS011;5708;50.660;6.778;2024-01-10T13:43:57;28.95;;;13.02;;
11305;SDS011;5708;50.660;6.778;2024-01-10T13:46:23;30.20;;;13.18;;
11305;SDS011;5708;50.660;6.778;2024-01-10T13:48:48;32.38;;;12.70;;
11305;SDS011;5708;50.660;6.778;2024-01-10T13:51:14;28.17;;;11.40;;
11305;SDS011;5708;50.660;6.778;2024-01-10T13:53:40;29.48;;;13.40;;
11305;SDS011;5708;50.660;6.778;2024-01-10T13:56:05;38.33;;;13.32;;
11305;SDS011;5708;50.660;6.778;2024-01-10T13:58:31;28.77;;;12.30;;
11305;SDS011;5708;50.660;6.778;2024-01-10T14:00:56;28.05;;;12.60;;
11305;SDS011;5708;50.660;6.778;2024-01-10T14:03:22;30.45;;;14.32;;
11305;SDS011;5708;50.660;6.778;2024-01-10T14:05:48;31.75;;;14.18;;
11305;SDS011;5708;50.660;6.778;2024-01-10T14:08:13;31.05;;;13.73;;
11305;SDS011;5708;50.660;6.778;2024-01-10T14:10:40;29.92;;;12.80;;
11305;SDS011;5708;50.660;6.778;2024-01-10T14:13:06;29.05;;;12.90;;
11305;SDS011;5708;50.660;6.778;2024-01-10T14:15:32;34.42;;;14.50;;
11305;SDS011;5708;50.660;6.778;2024-01-10T14:17:57;32.05;;;13.65;;
11305;SDS011;5708;50.660;6.778;2024-01-10T14:20:23;33.33;;;13.82;;
11305;SDS011;5708;50.660;6.778;2024-01-10T14:22:49;31.08;;;13.82;;
11305;SDS011;5708;50.660;6.778;2024-01-10T14:25:15;27.80;;;13.02;;
11305;SDS011;5708;50.660;6.778;2024-01-10T14:27:40;28.35;;;13.82;;
11305;SDS011;5708;50.660;6.778;2024-01-10T14:30:06;28.75;;;12.45;;
11305;SDS011;5708;50.660;6.778;2024-01-10T14:32:35;35.40;;;14.38;;
11305;SDS011;5708;50.660;6.778;2024-01-10T14:35:01;32.15;;;12.68;;
11305;SDS011;5708;50.660;6.778;2024-01-10T14:37:26;30.55;;;12.90;;
11305;SDS011;5708;50.660;6.778;2024-01-10T14:39:51;33.10;;;13.68;;
11305;SDS011;5708;50.660;6.778;2024-01-10T14:42:17;29.75;;;12.95;;
11305;SDS011;5708;50.660;6.778;2024-01-10T14:44:42;30.98;;;11.90;;
11305;SDS011;5708;50.660;6.778;2024-01-10T14:47:08;37.88;;;13.85;;
11305;SDS011;5708;50.660;6.778;2024-01-10T14:49:33;30.77;;;13.40;;
11305;SDS011;5708;50.660;6.778;2024-01-10T14:51:59;28.50;;;13.07;;